createdAt,value
2022-10-28T00:03:17.505Z,101145.23
2022-10-28T00:08:18.509Z,101138.20
2022-10-28T00:13:19.676Z,101134.16
2022-10-28T00:18:20.785Z,101131.82
2022-10-28T00:23:21.748Z,101129.72
2022-10-28T00:28:22.731Z,101124.48
2022-10-28T00:33:23.820Z,101114.15
2022-10-28T00:38:24.911Z,101115.48
2022-10-28T00:43:44.813Z,101111.04
2022-10-28T00:48:51.394Z,101106.09
2022-10-28T00:53:55.275Z,101102.64
2022-10-28T00:59:00.372Z,101100.94
2022-10-28T01:04:02.159Z,101100.83
2022-10-28T01:09:03.406Z,101096.30
2022-10-28T01:14:33.669Z,101095.36
2022-10-28T01:20:13.654Z,101088.64
2022-10-28T01:25:23.630Z,101086.82
2022-10-28T01:30:28.101Z,101083.83
2022-10-28T01:36:03.310Z,101084.42
2022-10-28T01:41:22.145Z,101080.52
2022-10-28T01:46:34.636Z,101072.46
2022-10-28T01:51:41.340Z,101067.55
2022-10-28T01:56:45.231Z,101063.30
2022-10-28T02:01:46.434Z,101062.30
2022-10-28T02:06:52.640Z,101060.60
2022-10-28T02:12:10.113Z,101056.14
2022-10-28T02:17:48.727Z,101057.14
2022-10-28T02:23:10.732Z,101048.73
2022-10-28T02:28:18.524Z,101039.61
2022-10-28T02:33:24.760Z,101040.79
2022-10-28T02:38:32.651Z,101042.89
2022-10-28T02:43:37.263Z,101040.58
2022-10-28T02:48:48.237Z,101041.73
2022-10-28T02:54:11.048Z,101041.84
2022-10-28T02:59:12.831Z,101035.00
2022-10-28T03:04:13.912Z,101034.36
2022-10-28T03:09:15.162Z,101032.31
2022-10-28T03:14:16.205Z,101027.02
2022-10-28T03:19:17.488Z,101023.11
2022-10-28T03:24:18.537Z,101027.62
2022-10-28T03:29:20.292Z,101028.61
2022-10-28T03:34:21.498Z,101028.41
2022-10-28T03:39:23.114Z,101025.98
2022-10-28T03:44:24.213Z,101025.41
2022-10-28T03:49:25.387Z,101018.09
2022-10-28T03:54:26.424Z,101011.23
2022-10-28T03:59:27.379Z,101012.38
2022-10-28T04:04:30.777Z,101017.46
2022-10-28T04:09:32.115Z,101014.54
2022-10-28T04:14:33.208Z,101004.70
2022-10-28T04:19:34.268Z,100995.86
2022-10-28T04:24:35.212Z,100988.75
2022-10-28T04:29:37.023Z,100985.77
2022-10-28T04:34:38.338Z,100985.19
2022-10-28T04:39:39.501Z,100982.59
2022-10-28T04:44:40.464Z,100979.79
2022-10-28T04:49:41.447Z,100960.38
2022-10-28T04:54:43.611Z,100955.71
2022-10-28T04:59:46.000Z,100956.60
2022-10-28T05:04:47.395Z,100952.24
2022-10-28T05:09:48.329Z,100950.31
2022-10-28T05:14:51.241Z,100949.06
2022-10-28T05:19:54.274Z,100944.07
2022-10-28T05:24:55.350Z,100938.77
2022-10-28T05:29:56.570Z,100934.77
2022-10-28T05:34:57.530Z,100931.79
2022-10-28T05:39:58.569Z,100932.50
2022-10-28T05:44:59.946Z,100929.98
2022-10-28T05:50:01.423Z,100920.17
2022-10-28T05:55:02.541Z,100916.55
2022-10-28T06:00:05.322Z,100911.88
2022-10-28T06:05:07.851Z,100908.45
2022-10-28T06:10:10.280Z,100902.27
2022-10-28T06:15:10.019Z,100904.20
2022-10-28T06:20:11.098Z,100900.48
2022-10-28T06:25:12.609Z,100897.16
2022-10-28T06:30:13.926Z,100903.42
2022-10-28T06:35:15.432Z,100904.58
2022-10-28T06:40:16.431Z,100909.60
2022-10-28T06:45:17.641Z,100911.80
2022-10-28T06:50:20.476Z,100901.88
2022-10-28T06:55:23.843Z,100903.00
2022-10-28T07:00:26.970Z,100909.20
2022-10-28T07:05:31.136Z,100911.70
2022-10-28T07:10:32.473Z,100913.75
2022-10-28T07:15:33.632Z,100910.95
2022-10-28T07:20:34.635Z,100910.49
2022-10-28T07:25:35.705Z,100909.55
2022-10-28T07:30:36.743Z,100904.20
2022-10-28T07:35:37.929Z,100899.24
2022-10-28T07:40:39.246Z,100900.98
2022-10-28T07:45:40.366Z,100903.70
2022-10-28T07:50:41.582Z,100907.73
2022-10-28T07:55:42.741Z,100901.21
2022-10-28T08:00:43.767Z,100896.21
2022-10-28T08:05:45.386Z,100890.77
2022-10-28T08:10:46.488Z,100881.34
2022-10-28T08:15:54.289Z,100874.97
2022-10-28T08:26:00.263Z,100865.02
2022-10-28T08:31:10.132Z,100865.09
2022-10-28T08:36:14.155Z,100868.59
2022-10-28T08:41:30.635Z,100866.86
2022-10-28T08:46:50.594Z,100870.25
2022-10-28T08:52:02.977Z,100867.38
2022-10-28T08:57:09.246Z,100862.50
2022-10-28T09:02:10.247Z,100850.83
2022-10-28T09:07:33.230Z,100848.55
2022-10-28T09:12:58.814Z,100853.83
2022-10-28T09:18:19.755Z,100848.41
2022-10-28T09:23:30.321Z,100846.25
2022-10-28T09:28:50.322Z,100845.98
2022-10-28T09:33:58.777Z,100843.11
2022-10-28T09:39:02.634Z,100843.25
2022-10-28T09:44:14.970Z,100840.51
2022-10-28T09:49:21.605Z,100840.39
2022-10-28T09:54:32.963Z,100832.79
2022-10-28T09:59:34.353Z,100823.33
2022-10-28T10:04:35.659Z,100818.42
2022-10-28T10:09:38.212Z,100817.45
2022-10-28T10:14:47.697Z,100813.36
2022-10-28T10:20:10.042Z,100820.41
2022-10-28T10:25:17.101Z,100810.00
2022-10-28T10:30:22.673Z,100796.58
2022-10-28T10:35:27.705Z,100795.27
2022-10-28T10:40:39.356Z,100797.97
2022-10-28T10:45:48.015Z,100792.52
2022-10-28T10:50:49.953Z,100784.66
2022-10-28T10:55:55.054Z,100787.23
2022-10-28T11:00:58.882Z,100780.81
2022-10-28T11:06:22.015Z,100770.56
2022-10-28T11:11:30.658Z,100758.82
2022-10-28T11:16:31.960Z,100753.41
2022-10-28T11:21:56.467Z,100748.27
2022-10-28T11:27:22.132Z,100736.63
2022-10-28T11:32:26.253Z,100736.45
2022-10-28T11:38:05.275Z,100730.69
2022-10-28T11:43:31.432Z,100725.08
2022-10-28T11:48:44.256Z,100733.92
2022-10-28T11:54:23.027Z,100744.02
2022-10-28T12:00:02.567Z,100753.23
2022-10-28T12:05:31.268Z,100757.30
2022-10-28T12:11:10.367Z,100757.38
2022-10-28T12:16:39.242Z,100748.83
2022-10-28T12:21:45.534Z,100733.45
2022-10-28T12:27:15.290Z,100710.52
2022-10-28T12:32:25.596Z,100712.88
2022-10-28T12:37:49.939Z,100726.08
2022-10-28T12:43:03.464Z,100724.64
2022-10-28T12:48:31.047Z,100720.45
2022-10-28T12:53:50.754Z,100729.40
2022-10-28T12:59:12.398Z,100726.90
2022-10-28T13:04:14.052Z,100723.73
2022-10-28T13:09:39.032Z,100730.44
2022-10-28T13:15:02.975Z,100721.81
2022-10-28T13:20:42.088Z,100698.64
2022-10-28T13:26:15.407Z,100672.45
2022-10-28T13:31:17.757Z,100657.69
2022-10-28T13:36:20.742Z,100657.59
2022-10-28T13:41:48.778Z,100648.41
2022-10-28T13:47:27.660Z,100648.86
2022-10-28T13:52:29.070Z,100641.48
2022-10-28T13:57:39.810Z,100642.34
2022-10-28T14:03:02.903Z,100639.95
2022-10-28T14:08:07.131Z,100633.84
2022-10-28T14:13:18.614Z,100630.58
2022-10-28T14:18:42.228Z,100624.99
2022-10-28T14:23:43.970Z,100622.15
2022-10-28T14:28:44.993Z,100614.27
2022-10-28T14:33:55.233Z,100614.56
2022-10-28T14:39:34.325Z,100609.04
2022-10-28T14:44:54.548Z,100597.56
2022-10-28T14:50:02.649Z,100596.63
2022-10-28T14:55:18.482Z,100591.56
2022-10-28T15:00:22.747Z,100587.45
2022-10-28T15:05:29.614Z,100589.52
2022-10-28T15:10:35.760Z,100585.81
2022-10-28T15:15:38.705Z,100585.31
2022-10-28T15:20:39.809Z,100598.35
2022-10-28T15:25:41.303Z,100608.02
2022-10-28T15:30:46.426Z,100606.89
2022-10-28T15:35:48.109Z,100611.91
2022-10-28T15:40:49.393Z,100624.04
2022-10-28T15:45:50.465Z,100619.63
2022-10-28T15:51:11.755Z,100623.42
2022-10-28T15:56:12.728Z,100635.29
2022-10-28T16:01:37.489Z,100645.45
2022-10-28T16:06:39.166Z,100643.08
2022-10-28T16:11:44.268Z,100633.80
2022-10-28T16:16:45.617Z,100620.40
2022-10-28T16:21:48.145Z,100603.70
2022-10-28T16:26:49.258Z,100604.54
2022-10-28T16:31:51.823Z,100600.98
2022-10-28T16:36:53.041Z,100596.27
2022-10-28T16:41:57.673Z,100593.71
2022-10-28T16:46:58.708Z,100579.15
2022-10-28T16:52:02.233Z,100569.92
2022-10-28T16:57:03.260Z,100574.58
2022-10-28T17:02:14.727Z,100570.27
2022-10-28T17:07:17.823Z,100573.70
2022-10-28T17:12:24.616Z,100579.84
2022-10-28T17:17:25.775Z,100566.54
2022-10-28T17:22:27.108Z,100568.48
2022-10-28T17:27:28.147Z,100565.77
2022-10-28T17:32:29.136Z,100580.31
2022-10-28T17:37:30.296Z,100587.05
2022-10-28T17:42:31.539Z,100578.30
2022-10-28T17:47:33.982Z,100574.03
2022-10-28T17:52:38.370Z,100572.58
2022-10-28T17:57:39.715Z,100576.10
2022-10-28T18:02:40.829Z,100570.76
2022-10-28T18:07:42.419Z,100565.52
2022-10-28T18:12:43.551Z,100560.96
2022-10-28T18:17:48.875Z,100551.79
2022-10-28T18:22:49.945Z,100542.00
2022-10-28T18:27:51.149Z,100526.58
2022-10-28T18:32:53.044Z,100515.41
2022-10-28T18:37:55.016Z,100522.78
2022-10-28T18:42:56.558Z,100528.73
2022-10-28T18:47:58.043Z,100525.74
2022-10-28T18:52:59.251Z,100520.59
2022-10-28T18:58:00.431Z,100520.30
2022-10-28T19:03:01.771Z,100516.39
2022-10-28T19:08:03.013Z,100510.94
2022-10-28T19:13:04.151Z,100506.98
2022-10-28T19:18:05.210Z,100500.94
2022-10-28T19:23:06.354Z,100499.10
2022-10-28T19:28:07.494Z,100494.83
2022-10-28T19:33:08.705Z,100489.00
2022-10-28T19:38:09.751Z,100472.33
2022-10-28T19:43:10.770Z,100466.96
2022-10-28T19:48:11.800Z,100469.59
2022-10-28T19:53:13.063Z,100471.15
2022-10-28T19:58:14.087Z,100472.92
2022-10-28T20:03:15.181Z,100473.85
2022-10-28T20:08:16.499Z,100473.24
2022-10-28T20:13:17.549Z,100468.19
2022-10-28T20:18:18.610Z,100468.36
2022-10-28T20:23:19.767Z,100464.89
2022-10-28T20:28:21.430Z,100458.61
2022-10-28T20:33:23.330Z,100455.69
2022-10-28T20:38:26.040Z,100453.23
2022-10-28T20:43:28.885Z,100448.59
2022-10-28T20:48:30.512Z,100443.23
2022-10-28T20:53:35.499Z,100443.59
2022-10-28T20:58:36.515Z,100447.96
2022-10-28T21:03:40.199Z,100440.26
2022-10-28T21:08:42.502Z,100439.67
2022-10-28T21:13:48.110Z,100441.60
2022-10-28T21:18:49.850Z,100434.81
2022-10-28T21:23:51.183Z,100434.30
2022-10-28T21:28:52.819Z,100428.96
2022-10-28T21:33:54.584Z,100424.09
2022-10-28T21:38:55.956Z,100415.61
2022-10-28T21:43:57.349Z,100410.05
2022-10-28T21:49:00.226Z,100407.25
2022-10-28T21:54:01.477Z,100409.93
2022-10-28T21:59:02.787Z,100404.80
2022-10-28T22:04:04.417Z,100407.85
2022-10-28T22:09:05.460Z,100404.98
2022-10-28T22:14:06.764Z,100400.81
2022-10-28T22:19:13.760Z,100396.09
2022-10-28T22:24:14.928Z,100393.34
2022-10-28T22:29:15.948Z,100391.77
2022-10-28T22:34:17.006Z,100391.79
2022-10-28T22:39:18.210Z,100386.48
2022-10-28T22:44:19.302Z,100384.09
2022-10-28T22:49:23.410Z,100381.23
2022-10-28T22:54:24.540Z,100372.75
2022-10-28T22:59:25.859Z,100374.03
2022-10-28T23:04:27.694Z,100368.58
2022-10-28T23:09:29.082Z,100371.30
2022-10-28T23:14:30.196Z,100366.73
2022-10-28T23:19:31.248Z,100361.48
2022-10-28T23:24:32.351Z,100357.63
2022-10-28T23:29:33.388Z,100360.98
2022-10-28T23:34:34.434Z,100354.20
2022-10-28T23:39:35.742Z,100354.97
2022-10-28T23:44:36.819Z,100354.16
2022-10-28T23:49:37.883Z,100353.41
2022-10-28T23:54:39.417Z,100358.30
2022-10-28T23:59:40.520Z,100356.40
